createdAt,value
2023-05-22T00:01:46.788Z,18.90
2023-05-22T00:04:13.967Z,18.80
2023-05-22T00:06:43.831Z,18.60
2023-05-22T00:09:11.076Z,18.40
2023-05-22T00:11:39.515Z,18.40
2023-05-22T00:14:06.462Z,18.30
2023-05-22T00:16:33.277Z,18.10
2023-05-22T00:19:01.044Z,18.20
2023-05-22T00:21:27.995Z,18.30
2023-05-22T00:23:54.707Z,18.20
2023-05-22T00:26:23.838Z,18.20
2023-05-22T00:28:50.725Z,18.10
2023-05-22T00:31:17.574Z,18.10
2023-05-22T00:33:44.612Z,18.10
2023-05-22T00:36:11.398Z,18.10
2023-05-22T00:38:38.168Z,18.10
2023-05-22T00:41:06.898Z,18.00
2023-05-22T00:43:34.320Z,18.00
2023-05-22T00:46:01.182Z,17.80
2023-05-22T00:48:28.041Z,17.80
2023-05-22T00:50:57.125Z,17.80
2023-05-22T00:53:25.466Z,17.90
2023-05-22T00:55:54.152Z,17.90
2023-05-22T00:58:21.781Z,17.90
2023-05-22T01:00:48.934Z,17.90
2023-05-22T01:03:18.594Z,17.80
2023-05-22T01:05:45.573Z,17.90
2023-05-22T01:08:12.380Z,17.90
2023-05-22T01:10:40.699Z,17.90
2023-05-22T01:13:16.555Z,17.80
2023-05-22T01:15:57.498Z,17.90
2023-05-22T01:18:24.972Z,17.70
2023-05-22T01:21:04.408Z,17.70
2023-05-22T01:24:12.035Z,17.80
2023-05-22T01:27:06.962Z,17.80
2023-05-22T01:29:46.261Z,17.90
2023-05-22T01:32:16.937Z,17.90
2023-05-22T01:34:46.687Z,17.80
2023-05-22T01:37:14.986Z,17.80
2023-05-22T01:39:42.428Z,17.70
2023-05-22T01:42:09.266Z,17.70
2023-05-22T01:44:36.038Z,17.80
2023-05-22T01:47:05.310Z,17.70
2023-05-22T01:49:33.839Z,17.70
2023-05-22T01:52:15.325Z,17.70
2023-05-22T01:55:06.506Z,17.70
2023-05-22T01:57:57.000Z,17.60
2023-05-22T02:00:27.614Z,17.60
2023-05-22T02:03:01.881Z,17.50
2023-05-22T02:05:30.344Z,17.40
2023-05-22T02:08:00.784Z,17.50
2023-05-22T02:10:29.471Z,17.50
2023-05-22T02:12:57.003Z,17.60
2023-05-22T02:15:24.017Z,17.60
2023-05-22T02:17:53.340Z,17.70
2023-05-22T02:20:20.180Z,17.60
2023-05-22T02:22:47.888Z,17.70
2023-05-22T02:25:17.009Z,17.70
2023-05-22T02:27:45.807Z,17.70
2023-05-22T02:30:13.884Z,17.80
2023-05-22T02:32:41.592Z,17.80
2023-05-22T02:35:08.785Z,17.80
2023-05-22T02:37:36.206Z,17.90
2023-05-22T02:40:06.367Z,17.90
2023-05-22T02:42:33.665Z,18.00
2023-05-22T02:45:00.676Z,18.10
2023-05-22T02:47:27.507Z,18.20
2023-05-22T02:49:54.374Z,18.20
2023-05-22T02:52:22.481Z,18.30
2023-05-22T02:54:49.577Z,18.40
2023-05-22T02:57:16.458Z,18.40
2023-05-22T02:59:44.331Z,18.40
2023-05-22T03:02:12.352Z,18.40
2023-05-22T03:04:39.412Z,18.50
2023-05-22T03:07:07.225Z,18.50
2023-05-22T03:09:34.528Z,18.50
2023-05-22T03:12:01.392Z,18.50
2023-05-22T03:14:29.229Z,18.60
2023-05-22T03:16:56.766Z,18.60
2023-05-22T03:19:23.772Z,18.60
2023-05-22T03:21:50.717Z,18.70
2023-05-22T03:24:17.741Z,18.70
2023-05-22T03:26:44.529Z,18.60
2023-05-22T03:29:11.285Z,18.70
2023-05-22T03:31:38.063Z,18.70
2023-05-22T03:34:05.971Z,18.70
2023-05-22T03:36:34.209Z,18.70
2023-05-22T03:39:02.046Z,18.70
2023-05-22T03:41:28.833Z,18.70
2023-05-22T03:43:55.738Z,18.70
2023-05-22T03:46:23.176Z,18.70
2023-05-22T03:48:50.027Z,18.60
2023-05-22T03:51:20.013Z,18.60
2023-05-22T03:53:47.178Z,18.70
2023-05-22T03:56:14.362Z,18.70
2023-05-22T03:58:41.059Z,18.70
2023-05-22T04:01:10.083Z,18.60
2023-05-22T04:03:37.961Z,18.70
2023-05-22T04:06:05.778Z,18.60
2023-05-22T04:08:32.688Z,18.60
2023-05-22T04:10:59.499Z,18.60
2023-05-22T04:13:27.176Z,18.90
2023-05-22T04:15:54.354Z,18.60
2023-05-22T04:18:21.172Z,18.60
2023-05-22T04:20:48.154Z,18.60
2023-05-22T04:23:14.949Z,18.60
2023-05-22T04:25:41.704Z,18.60
2023-05-22T04:28:09.166Z,18.70
2023-05-22T04:30:40.419Z,18.70
2023-05-22T04:33:08.360Z,18.80
2023-05-22T04:35:35.200Z,18.80
2023-05-22T04:38:02.459Z,18.80
2023-05-22T04:40:30.367Z,18.80
2023-05-22T04:43:00.001Z,18.80
2023-05-22T04:45:28.725Z,18.80
2023-05-22T04:47:59.614Z,18.80
2023-05-22T04:50:26.437Z,18.80
2023-05-22T04:52:53.509Z,18.80
2023-05-22T04:55:20.260Z,18.90
2023-05-22T04:57:47.426Z,18.90
2023-05-22T05:00:17.101Z,18.90
2023-05-22T05:02:44.131Z,19.00
2023-05-22T05:05:11.040Z,19.10
2023-05-22T05:07:39.611Z,19.10
2023-05-22T05:10:07.481Z,19.10
2023-05-22T05:12:34.553Z,19.20
2023-05-22T05:15:01.600Z,19.30
2023-05-22T05:17:28.829Z,19.30
2023-05-22T05:19:55.777Z,19.40
2023-05-22T05:22:23.180Z,19.40
2023-05-22T05:24:50.034Z,19.40
2023-05-22T05:27:16.850Z,19.40
2023-05-22T05:29:43.661Z,19.30
2023-05-22T05:32:12.470Z,19.30
2023-05-22T05:34:39.330Z,19.30
2023-05-22T05:37:06.176Z,19.30
2023-05-22T05:39:33.050Z,19.40
2023-05-22T05:42:00.348Z,19.30
2023-05-22T05:44:27.363Z,19.40
2023-05-22T05:46:54.801Z,19.50
2023-05-22T05:49:22.253Z,19.60
2023-05-22T05:51:49.070Z,19.80
2023-05-22T05:54:15.971Z,20.00
2023-05-22T05:56:43.003Z,20.20
2023-05-22T05:59:09.984Z,20.40
2023-05-22T06:01:38.637Z,20.60
2023-05-22T06:04:05.728Z,20.70
2023-05-22T06:06:36.488Z,20.70
2023-05-22T06:09:07.573Z,20.80
2023-05-22T06:11:34.535Z,20.90
2023-05-22T06:14:03.287Z,20.90
2023-05-22T06:16:30.128Z,21.00
2023-05-22T06:18:59.318Z,21.10
2023-05-22T06:21:26.745Z,21.20
2023-05-22T06:23:53.572Z,21.20
2023-05-22T06:26:20.315Z,21.30
2023-05-22T06:28:47.499Z,21.50
2023-05-22T06:31:14.411Z,21.70
2023-05-22T06:33:43.138Z,21.80
2023-05-22T06:36:11.501Z,22.00
2023-05-22T06:38:39.259Z,22.10
2023-05-22T06:41:06.518Z,22.20
2023-05-22T06:43:33.483Z,22.10
2023-05-22T06:46:00.435Z,22.10
2023-05-22T06:48:27.211Z,22.10
2023-05-22T06:50:54.029Z,22.10
2023-05-22T06:53:20.870Z,22.00
2023-05-22T06:55:47.854Z,22.00
2023-05-22T06:58:14.874Z,22.00
2023-05-22T07:00:41.905Z,22.10
2023-05-22T07:03:08.938Z,22.30
2023-05-22T07:05:36.157Z,22.40
2023-05-22T07:08:03.028Z,22.70
2023-05-22T07:10:29.915Z,22.70
2023-05-22T07:12:56.720Z,22.90
2023-05-22T07:15:23.485Z,22.90
2023-05-22T07:17:50.216Z,22.90
2023-05-22T07:20:17.774Z,22.90
2023-05-22T07:22:44.649Z,22.90
2023-05-22T07:25:11.407Z,22.90
2023-05-22T07:27:38.153Z,23.00
2023-05-22T07:30:05.499Z,23.20
2023-05-22T07:32:32.315Z,23.30
2023-05-22T07:34:59.156Z,23.40
2023-05-22T07:37:26.167Z,23.50
2023-05-22T07:39:52.916Z,23.40
2023-05-22T07:42:19.763Z,23.50
2023-05-22T07:44:46.473Z,23.40
2023-05-22T07:47:13.262Z,23.40
2023-05-22T07:49:40.017Z,23.40
2023-05-22T07:52:07.082Z,23.40
2023-05-22T07:54:33.815Z,23.40
2023-05-22T07:57:03.774Z,23.40
2023-05-22T07:59:30.674Z,23.30
2023-05-22T08:01:58.326Z,23.10
2023-05-22T08:04:26.252Z,22.90
2023-05-22T08:06:53.209Z,23.00
2023-05-22T08:09:21.460Z,23.00
2023-05-22T08:11:48.547Z,23.10
2023-05-22T08:14:15.386Z,23.20
2023-05-22T08:16:42.225Z,23.30
2023-05-22T08:19:09.254Z,23.40
2023-05-22T08:21:37.465Z,23.40
2023-05-22T08:24:04.530Z,23.40
2023-05-22T08:26:33.500Z,23.50
2023-05-22T08:29:01.254Z,23.60
2023-05-22T08:31:29.251Z,23.60
2023-05-22T08:34:02.929Z,23.80
2023-05-22T08:36:34.409Z,23.90
2023-05-22T08:39:01.549Z,24.00
2023-05-22T08:41:29.308Z,24.10
2023-05-22T08:43:56.193Z,24.20
2023-05-22T08:46:28.290Z,24.40
2023-05-22T08:48:58.143Z,24.70
2023-05-22T08:51:29.367Z,24.50
2023-05-22T08:53:57.285Z,24.20
2023-05-22T08:56:26.060Z,23.80
2023-05-22T08:58:54.940Z,23.70
2023-05-22T09:01:22.774Z,23.80
2023-05-22T09:03:51.422Z,23.90
2023-05-22T09:06:18.616Z,24.00
2023-05-22T09:08:46.128Z,24.10
2023-05-22T09:11:13.271Z,23.70
2023-05-22T09:13:41.376Z,23.60
2023-05-22T09:16:12.289Z,23.50
2023-05-22T09:18:40.119Z,23.70
2023-05-22T09:21:21.502Z,23.70
2023-05-22T09:23:55.059Z,24.00
2023-05-22T09:26:22.343Z,24.10
2023-05-22T09:28:49.314Z,24.20
2023-05-22T09:31:16.458Z,24.40
2023-05-22T09:33:44.361Z,24.50
2023-05-22T09:36:11.320Z,24.70
2023-05-22T09:38:39.451Z,24.50
2023-05-22T09:41:06.577Z,24.00
2023-05-22T09:43:34.271Z,24.00
2023-05-22T09:46:02.357Z,24.40
2023-05-22T09:48:29.308Z,24.70
2023-05-22T09:50:59.980Z,25.10
2023-05-22T09:53:28.965Z,25.00
2023-05-22T09:56:00.392Z,25.10
2023-05-22T09:58:31.723Z,25.20
2023-05-22T10:01:00.216Z,25.20
2023-05-22T10:03:27.348Z,25.00
2023-05-22T10:05:58.824Z,25.10
2023-05-22T10:08:28.397Z,25.10
2023-05-22T10:10:55.774Z,25.60
2023-05-22T10:13:24.246Z,26.10
2023-05-22T10:15:51.665Z,26.50
2023-05-22T10:18:18.721Z,26.80
2023-05-22T10:20:49.033Z,26.60
2023-05-22T10:23:17.118Z,26.30
2023-05-22T10:25:45.436Z,26.30
2023-05-22T10:28:19.660Z,26.10
2023-05-22T10:31:00.365Z,26.10
2023-05-22T10:33:38.854Z,26.20
2023-05-22T10:36:10.261Z,26.40
2023-05-22T10:38:55.601Z,26.50
2023-05-22T10:41:26.414Z,26.40
2023-05-22T10:43:57.879Z,26.20
2023-05-22T10:46:25.055Z,26.10
2023-05-22T10:48:54.115Z,26.30
2023-05-22T10:51:22.774Z,26.40
2023-05-22T10:53:59.617Z,26.40
2023-05-22T10:56:33.502Z,26.30
2023-05-22T10:59:05.353Z,26.70
2023-05-22T11:01:37.660Z,26.80
2023-05-22T11:04:05.125Z,26.70
2023-05-22T11:06:45.747Z,26.70
2023-05-22T11:09:30.890Z,27.00
2023-05-22T11:12:19.319Z,27.30
2023-05-22T11:15:19.119Z,27.20
2023-05-22T11:17:51.829Z,27.40
2023-05-22T11:20:22.339Z,27.70
2023-05-22T11:23:06.967Z,27.40
2023-05-22T11:25:41.071Z,27.60
2023-05-22T11:28:08.160Z,27.80
2023-05-22T11:30:35.930Z,27.90
2023-05-22T11:33:03.337Z,28.10
2023-05-22T11:35:30.548Z,28.30
2023-05-22T11:37:57.904Z,28.30
2023-05-22T11:40:27.299Z,28.40
2023-05-22T11:42:54.430Z,28.60
2023-05-22T11:45:22.059Z,28.90
2023-05-22T11:47:49.746Z,28.90
2023-05-22T11:50:22.518Z,28.90
2023-05-22T11:52:56.693Z,29.20
2023-05-22T11:55:24.247Z,29.20
2023-05-22T11:57:51.046Z,29.10
2023-05-22T12:00:18.413Z,29.00
2023-05-22T12:02:49.334Z,29.30
2023-05-22T12:05:16.712Z,29.80
2023-05-22T12:07:43.808Z,30.20
2023-05-22T12:10:11.127Z,30.10
2023-05-22T12:12:38.538Z,29.80
2023-05-22T12:15:06.736Z,29.30
2023-05-22T12:17:37.445Z,29.20
2023-05-22T12:20:05.569Z,29.80
2023-05-22T12:22:32.464Z,30.00
2023-05-22T12:24:59.332Z,30.40
2023-05-22T12:27:33.218Z,30.60
2023-05-22T12:30:10.560Z,30.70
2023-05-22T12:32:37.390Z,30.60
2023-05-22T12:35:04.383Z,30.50
2023-05-22T12:37:34.326Z,30.10
2023-05-22T12:40:03.105Z,29.80
2023-05-22T12:42:30.061Z,29.90
2023-05-22T12:44:58.195Z,30.00
2023-05-22T12:47:25.979Z,30.20
2023-05-22T12:49:52.896Z,30.40
2023-05-22T12:52:19.755Z,30.70
2023-05-22T12:54:46.743Z,30.90
2023-05-22T12:57:13.659Z,31.10
2023-05-22T12:59:41.388Z,31.10
2023-05-22T13:02:08.345Z,31.30
2023-05-22T13:04:35.231Z,31.40
2023-05-22T13:07:02.317Z,31.50
2023-05-22T13:09:29.202Z,31.80
2023-05-22T13:11:56.474Z,32.00
2023-05-22T13:14:23.397Z,32.00
2023-05-22T13:16:50.066Z,32.10
2023-05-22T13:19:17.069Z,32.20
2023-05-22T13:21:44.126Z,32.20
2023-05-22T13:24:11.011Z,32.20
2023-05-22T13:26:37.758Z,32.20
2023-05-22T13:29:05.171Z,32.30
2023-05-22T13:31:37.227Z,32.40
2023-05-22T13:34:04.650Z,32.30
2023-05-22T13:36:31.714Z,32.20
2023-05-22T13:38:58.703Z,32.30
2023-05-22T13:41:25.622Z,32.40
2023-05-22T13:43:52.754Z,32.50
2023-05-22T13:46:21.393Z,32.90
2023-05-22T13:48:48.186Z,33.00
2023-05-22T13:51:15.200Z,33.50
2023-05-22T13:53:41.927Z,33.80
2023-05-22T13:56:08.651Z,34.20
2023-05-22T13:58:35.718Z,34.30
2023-05-22T14:01:02.476Z,34.40
2023-05-22T14:03:29.277Z,34.40
2023-05-22T14:05:56.210Z,34.70
2023-05-22T14:08:22.954Z,34.90
2023-05-22T14:10:49.778Z,34.50
2023-05-22T14:13:16.793Z,34.70
2023-05-22T14:15:46.680Z,35.10
2023-05-22T14:18:14.492Z,34.90
2023-05-22T14:20:41.507Z,35.00
2023-05-22T14:23:08.418Z,35.00
2023-05-22T14:25:35.208Z,34.80
2023-05-22T14:28:01.931Z,35.10
2023-05-22T14:30:28.653Z,35.10
2023-05-22T14:32:55.489Z,34.50
2023-05-22T14:35:22.454Z,33.20
2023-05-22T14:37:49.184Z,32.20
2023-05-22T14:40:16.134Z,31.40
2023-05-22T14:42:42.926Z,30.80
2023-05-22T14:45:09.983Z,30.80
2023-05-22T14:47:36.833Z,30.40
2023-05-22T14:50:18.196Z,29.90
2023-05-22T14:52:46.317Z,29.90
2023-05-22T14:55:13.406Z,30.00
2023-05-22T14:57:40.120Z,30.20
2023-05-22T15:00:09.073Z,30.40
2023-05-22T15:02:36.813Z,30.20
2023-05-22T15:05:04.516Z,30.00
2023-05-22T15:07:43.015Z,29.70
2023-05-22T15:10:11.448Z,29.70
2023-05-22T15:12:38.322Z,30.10
2023-05-22T15:15:05.434Z,29.80
2023-05-22T15:17:32.312Z,29.50
2023-05-22T15:19:59.132Z,29.50
2023-05-22T15:22:25.907Z,29.60
2023-05-22T15:25:07.391Z,29.70
2023-05-22T15:27:35.166Z,29.50
2023-05-22T15:30:02.790Z,29.70
2023-05-22T15:32:32.545Z,29.60
2023-05-22T15:34:59.435Z,29.60
2023-05-22T15:37:29.177Z,29.60
2023-05-22T15:39:57.919Z,29.30
2023-05-22T15:42:24.638Z,28.80
2023-05-22T15:44:51.464Z,28.60
2023-05-22T15:47:18.225Z,28.50
2023-05-22T15:49:44.986Z,28.40
2023-05-22T15:52:11.710Z,28.20
2023-05-22T15:54:38.703Z,27.90
2023-05-22T15:57:05.609Z,27.90
2023-05-22T15:59:32.428Z,28.20
2023-05-22T16:01:59.450Z,28.70
2023-05-22T16:04:26.119Z,29.10
2023-05-22T16:06:52.890Z,29.40
2023-05-22T16:09:19.795Z,29.70
2023-05-22T16:11:46.576Z,29.60
2023-05-22T16:14:13.447Z,29.60
2023-05-22T16:16:41.238Z,29.70
2023-05-22T16:19:08.381Z,29.70
2023-05-22T16:21:35.872Z,29.40
2023-05-22T16:24:03.713Z,29.20
2023-05-22T16:26:30.514Z,29.00
2023-05-22T16:28:57.250Z,28.90
2023-05-22T16:31:24.088Z,29.00
2023-05-22T16:33:51.102Z,29.00
2023-05-22T16:36:17.837Z,28.90
2023-05-22T16:38:44.669Z,28.80
2023-05-22T16:41:11.377Z,28.70
2023-05-22T16:43:38.321Z,28.70
2023-05-22T16:46:05.396Z,28.50
2023-05-22T16:48:32.116Z,28.70
2023-05-22T16:50:58.810Z,28.80
2023-05-22T16:53:25.693Z,28.80
2023-05-22T16:55:52.482Z,28.80
2023-05-22T16:58:19.241Z,29.00
2023-05-22T17:00:46.314Z,29.00
2023-05-22T17:03:14.129Z,28.90
2023-05-22T17:05:41.540Z,28.60
2023-05-22T17:08:08.684Z,28.40
2023-05-22T17:10:35.720Z,28.50
2023-05-22T17:13:02.462Z,28.70
2023-05-22T17:15:29.210Z,28.60
2023-05-22T17:17:55.971Z,28.40
2023-05-22T17:20:25.871Z,28.20
2023-05-22T17:22:52.745Z,28.30
2023-05-22T17:25:19.613Z,28.30
2023-05-22T17:27:46.530Z,28.20
2023-05-22T17:30:13.427Z,28.10
2023-05-22T17:32:40.326Z,27.90
2023-05-22T17:35:07.327Z,27.70
2023-05-22T17:37:34.455Z,27.60
2023-05-22T17:40:01.279Z,27.70
2023-05-22T17:42:28.055Z,27.60
2023-05-22T17:44:54.930Z,27.60
2023-05-22T17:47:21.765Z,27.40
2023-05-22T17:49:48.549Z,27.20
2023-05-22T17:52:15.629Z,27.20
2023-05-22T17:54:42.367Z,27.20
2023-05-22T17:57:09.218Z,27.20
2023-05-22T17:59:37.357Z,27.00
2023-05-22T18:02:06.646Z,26.90
2023-05-22T18:04:33.373Z,26.70
2023-05-22T18:07:00.200Z,26.70
2023-05-22T18:09:26.975Z,26.70
2023-05-22T18:11:53.738Z,26.70
2023-05-22T18:14:21.003Z,26.70
2023-05-22T18:16:47.944Z,26.60
2023-05-22T18:19:14.710Z,26.70
2023-05-22T18:21:41.827Z,26.50
2023-05-22T18:24:08.560Z,26.40
2023-05-22T18:26:35.307Z,26.40
2023-05-22T18:29:02.255Z,26.40
2023-05-22T18:31:29.521Z,26.40
2023-05-22T18:33:56.537Z,26.40
2023-05-22T18:36:23.537Z,26.30
2023-05-22T18:38:50.408Z,26.30
2023-05-22T18:41:17.108Z,26.20
2023-05-22T18:43:43.874Z,26.10
2023-05-22T18:46:10.789Z,26.10
2023-05-22T18:48:37.541Z,26.10
2023-05-22T18:51:04.445Z,26.00
2023-05-22T18:53:31.428Z,26.00
2023-05-22T18:55:58.338Z,26.00
2023-05-22T18:58:25.217Z,26.00
2023-05-22T19:00:54.202Z,25.80
2023-05-22T19:03:20.997Z,25.70
2023-05-22T19:05:48.089Z,25.60
2023-05-22T19:08:14.811Z,25.60
2023-05-22T19:10:41.918Z,25.50
2023-05-22T19:13:08.946Z,25.50
2023-05-22T19:15:35.846Z,25.40
2023-05-22T19:18:02.622Z,25.40
2023-05-22T19:20:29.481Z,25.40
2023-05-22T19:22:56.498Z,25.30
2023-05-22T19:25:23.363Z,25.20
2023-05-22T19:27:50.238Z,25.00
2023-05-22T19:30:18.737Z,25.00
2023-05-22T19:32:45.748Z,24.80
2023-05-22T19:35:12.853Z,24.70
2023-05-22T19:37:39.662Z,24.70
2023-05-22T19:40:07.276Z,24.70
2023-05-22T19:42:34.398Z,24.60
2023-05-22T19:45:02.547Z,24.40
2023-05-22T19:47:29.438Z,24.40
2023-05-22T19:49:59.600Z,24.30
2023-05-22T19:52:29.289Z,24.20
2023-05-22T19:54:56.192Z,24.10
2023-05-22T19:57:23.066Z,24.10
2023-05-22T19:59:50.637Z,24.20
2023-05-22T20:02:17.703Z,24.30
2023-05-22T20:04:48.342Z,24.30
2023-05-22T20:07:15.541Z,24.20
2023-05-22T20:09:42.917Z,24.10
2023-05-22T20:12:10.643Z,24.00
2023-05-22T20:14:37.680Z,23.90
2023-05-22T20:17:04.733Z,23.80
2023-05-22T20:19:34.738Z,23.80
2023-05-22T20:22:02.062Z,23.80
2023-05-22T20:24:29.607Z,23.70
2023-05-22T20:26:56.915Z,23.70
2023-05-22T20:29:23.954Z,23.60
2023-05-22T20:31:54.461Z,23.50
2023-05-22T20:34:26.612Z,23.40
2023-05-22T20:36:54.152Z,23.30
2023-05-22T20:39:22.398Z,23.20
2023-05-22T20:41:52.300Z,23.20
2023-05-22T20:44:19.160Z,23.20
2023-05-22T20:46:45.871Z,23.10
2023-05-22T20:49:12.610Z,23.00
2023-05-22T20:51:39.395Z,23.00
2023-05-22T20:54:06.609Z,23.00
2023-05-22T20:56:33.386Z,22.90
2023-05-22T20:59:00.411Z,22.80
2023-05-22T21:01:27.125Z,22.60
2023-05-22T21:03:56.402Z,22.60
2023-05-22T21:06:23.584Z,22.60
2023-05-22T21:08:53.249Z,22.60
2023-05-22T21:11:21.011Z,22.50
2023-05-22T21:13:47.811Z,22.50
2023-05-22T21:16:14.589Z,22.60
2023-05-22T21:18:41.378Z,22.50
2023-05-22T21:21:08.090Z,22.50
2023-05-22T21:23:35.149Z,22.40
2023-05-22T21:26:04.822Z,22.30
2023-05-22T21:28:31.616Z,22.30
2023-05-22T21:30:58.314Z,22.20
2023-05-22T21:33:25.142Z,22.10
2023-05-22T21:35:52.002Z,22.10
2023-05-22T21:38:18.722Z,22.20
2023-05-22T21:40:45.730Z,22.10
2023-05-22T21:43:12.518Z,22.00
2023-05-22T21:45:39.408Z,21.90
2023-05-22T21:48:06.552Z,21.80
2023-05-22T21:50:33.298Z,21.90
2023-05-22T21:52:59.994Z,21.90
2023-05-22T21:55:27.208Z,21.90
2023-05-22T21:57:55.488Z,21.80
2023-05-22T22:00:22.736Z,21.80
2023-05-22T22:02:49.786Z,21.80
2023-05-22T22:05:18.598Z,21.80
2023-05-22T22:07:45.590Z,21.70
2023-05-22T22:10:12.457Z,21.80
2023-05-22T22:12:39.189Z,21.70
2023-05-22T22:15:06.529Z,21.70
2023-05-22T22:17:34.849Z,21.60
2023-05-22T22:20:01.844Z,21.60
2023-05-22T22:22:28.645Z,21.60
2023-05-22T22:24:55.438Z,21.60
2023-05-22T22:27:22.406Z,21.70
2023-05-22T22:29:49.245Z,21.50
2023-05-22T22:32:16.292Z,21.40
2023-05-22T22:34:45.292Z,21.40
2023-05-22T22:37:13.817Z,21.30
2023-05-22T22:39:41.094Z,21.40
2023-05-22T22:42:07.935Z,21.40
2023-05-22T22:44:34.667Z,21.40
2023-05-22T22:47:02.481Z,21.40
2023-05-22T22:49:29.251Z,21.30
2023-05-22T22:51:56.437Z,21.30
2023-05-22T22:54:23.909Z,21.10
2023-05-22T22:56:51.348Z,21.10
2023-05-22T22:59:18.179Z,21.00
2023-05-22T23:01:45.291Z,21.00
2023-05-22T23:04:13.037Z,21.10
2023-05-22T23:06:42.612Z,21.10
2023-05-22T23:09:11.059Z,21.10
2023-05-22T23:11:38.707Z,21.10
2023-05-22T23:14:07.777Z,21.00
2023-05-22T23:16:41.354Z,21.10
2023-05-22T23:19:10.441Z,21.10
2023-05-22T23:21:37.272Z,21.20
2023-05-22T23:24:05.139Z,21.10
2023-05-22T23:26:32.599Z,21.10
2023-05-22T23:29:00.154Z,21.00
2023-05-22T23:31:30.111Z,21.00
2023-05-22T23:33:57.444Z,20.90
2023-05-22T23:36:24.562Z,20.90
2023-05-22T23:38:51.469Z,20.80
2023-05-22T23:41:18.590Z,20.80
2023-05-22T23:43:48.222Z,20.80
2023-05-22T23:46:15.106Z,20.80
2023-05-22T23:48:42.400Z,20.70
2023-05-22T23:51:14.341Z,20.60
2023-05-22T23:53:42.293Z,20.60
2023-05-22T23:56:09.761Z,20.60
2023-05-22T23:58:39.623Z,20.60
